메인 페이지
METAR-TAF:

METAR-TAF

공항 :

진나 국제공항

카라치, 파키스탄

위도: 24-54N, 경도: 067-08E, 고도: 21m

현재 날씨관측

예보는 23분 전, 21:25시(UTC)에 발표되었습니다.
북서6kt
온도 29°C
습도 27%
기압 1006 hPa
시정: 6000m

METAR: OPKC 222125Z 32006KT 6000 NSC 29/08 Q1006 NOSIG

시각: 02:48 (21:48 UTC)

예보

예보는 5 시간 48분 전, 16:00시(UTC)에 발표되었습니다.
예보 대상 시간: 22일 18시부터 23일 24시까지 (UTC)
서북서5kt, 순간 최대 풍속 15kt
시정: 5000m
연무
일시적
23일 00시부터 23일 04시까지 (UTC)
북서5kt
시정: 5000m
고도 2000ft 상공 구름 조금
23일 0600시부터 (UTC)
8kt, 순간 최대 풍속 18kt
시정: 6000m
고도 2000ft 상공 구름 조금
23일 1200시부터 (UTC)
서남서5kt, 순간 최대 풍속 15kt
시정: 6000m
고도 2000ft 상공 구름 조금
고도 10000ft 상공 구름 보통
23일 1800시부터 (UTC)
5kt, 순간 최대 풍속 15kt
시정: 5000m
고도 2000ft 상공 구름 조금
연무

TAF: OPKC 221600Z 2218/2324 29005G15KT 5000 HZ NSC TEMPO 2300/2304 32005KT 5000 FEW020 FM230600 28008G18KT 6000 FEW020 FM231200 24005G15KT 6000 FEW020 SCT100 FM231800 27005G15KT 5000 HZ FEW020

4,000개 이상의 공항 관측 자료 및 예보 (METAR 및 TAF 보고).

지도상에서 검색 가능한 기상관측소가 노란 점과 빨간 점으로 표시되어 있습니다.

기상관측소 명을 보려면 표시 위로 마우스를 이동하세요.

날씨 관측과 예보를 보려면 클릭하세요.

지도 변경 : 확대하려면 엑스 표시가 있는 녹색 버튼, 축소하려면 빼기 표시가 있는 녹색 버튼, 다음 페이지의 지도를 보려면 녹색 화살표를 클릭하세요.


METAR-TAF: